createdAt,value
2023-05-19T00:00:11.592Z,100.00
2023-05-19T00:02:38.116Z,100.00
2023-05-19T00:05:04.441Z,100.00
2023-05-19T00:07:30.718Z,100.00
2023-05-19T00:09:57.338Z,100.00
2023-05-19T00:12:23.607Z,100.00
2023-05-19T00:14:50.063Z,100.00
2023-05-19T00:17:16.342Z,100.00
2023-05-19T00:19:42.650Z,100.00
2023-05-19T00:22:08.950Z,100.00
2023-05-19T00:24:35.224Z,100.00
2023-05-19T00:27:01.490Z,100.00
2023-05-19T00:29:27.809Z,100.00
2023-05-19T00:31:54.288Z,100.00
2023-05-19T00:34:20.840Z,100.00
2023-05-19T00:36:47.083Z,100.00
2023-05-19T00:39:13.757Z,100.00
2023-05-19T00:41:40.180Z,100.00
2023-05-19T00:44:06.430Z,100.00
2023-05-19T00:46:32.757Z,100.00
2023-05-19T00:48:59.109Z,100.00
2023-05-19T00:51:25.509Z,100.00
2023-05-19T00:53:52.168Z,100.00
2023-05-19T00:56:18.441Z,100.00
2023-05-19T00:58:44.725Z,100.00
2023-05-19T01:01:11.116Z,100.00
2023-05-19T01:03:37.773Z,100.00
2023-05-19T01:06:04.092Z,100.00
2023-05-19T01:08:30.365Z,100.00
2023-05-19T01:10:57.045Z,100.00
2023-05-19T01:13:23.339Z,100.00
2023-05-19T01:15:49.685Z,100.00
2023-05-19T01:18:16.021Z,100.00
2023-05-19T01:20:42.673Z,100.00
2023-05-19T01:23:09.214Z,100.00
2023-05-19T01:25:35.662Z,100.00
2023-05-19T01:28:01.956Z,100.00
2023-05-19T01:30:28.406Z,100.00
2023-05-19T01:32:55.102Z,100.00
2023-05-19T01:35:21.575Z,100.00
2023-05-19T01:37:47.876Z,100.00
2023-05-19T01:40:14.473Z,100.00
2023-05-19T01:42:40.939Z,100.00
2023-05-19T01:45:07.286Z,100.00
2023-05-19T01:47:33.783Z,100.00
2023-05-19T01:50:00.170Z,100.00
2023-05-19T01:52:26.542Z,100.00
2023-05-19T01:54:53.148Z,100.00
2023-05-19T01:57:19.523Z,100.00
2023-05-19T01:59:45.808Z,100.00
2023-05-19T02:02:12.099Z,100.00
2023-05-19T02:04:38.401Z,100.00
2023-05-19T02:07:04.719Z,100.00
2023-05-19T02:09:30.995Z,100.00
2023-05-19T02:11:57.257Z,100.00
2023-05-19T02:14:23.928Z,100.00
2023-05-19T02:16:50.217Z,100.00
2023-05-19T02:19:16.469Z,100.00
2023-05-19T02:21:42.830Z,100.00
2023-05-19T02:24:09.088Z,100.00
2023-05-19T02:26:35.435Z,100.00
2023-05-19T02:29:01.893Z,100.00
2023-05-19T02:31:28.173Z,100.00
2023-05-19T02:33:54.961Z,100.00
2023-05-19T02:36:21.217Z,100.00
2023-05-19T02:38:47.913Z,100.00
2023-05-19T02:41:14.186Z,100.00
2023-05-19T02:43:40.459Z,100.00
2023-05-19T02:46:06.814Z,100.00
2023-05-19T02:48:33.110Z,100.00
2023-05-19T02:50:59.388Z,100.00
2023-05-19T02:53:25.805Z,99.35
2023-05-19T02:55:52.099Z,99.32
2023-05-19T02:58:18.385Z,100.00
2023-05-19T03:00:44.630Z,99.78
2023-05-19T03:03:11.151Z,100.00
2023-05-19T03:05:37.454Z,100.00
2023-05-19T03:08:03.733Z,100.00
2023-05-19T03:10:30.164Z,100.00
2023-05-19T03:12:56.513Z,100.00
2023-05-19T03:15:22.798Z,100.00
2023-05-19T03:17:49.161Z,100.00
2023-05-19T03:20:15.644Z,100.00
2023-05-19T03:22:41.960Z,100.00
2023-05-19T03:25:08.208Z,99.85
2023-05-19T03:27:34.749Z,99.82
2023-05-19T03:30:01.154Z,100.00
2023-05-19T03:32:27.991Z,100.00
2023-05-19T03:34:54.350Z,100.00
2023-05-19T03:37:20.634Z,99.76
2023-05-19T03:39:46.883Z,99.63
2023-05-19T03:42:13.394Z,99.61
2023-05-19T03:44:40.029Z,100.00
2023-05-19T03:47:06.469Z,100.00
2023-05-19T03:49:33.099Z,100.00
2023-05-19T03:51:59.387Z,100.00
2023-05-19T03:54:25.686Z,100.00
2023-05-19T03:56:52.104Z,100.00
2023-05-19T03:59:18.432Z,100.00
2023-05-19T04:01:44.715Z,99.42
2023-05-19T04:04:11.054Z,98.92
2023-05-19T04:06:37.407Z,100.00
2023-05-19T04:09:03.680Z,100.00
2023-05-19T04:11:30.009Z,100.00
2023-05-19T04:13:56.321Z,100.00
2023-05-19T04:16:22.717Z,100.00
2023-05-19T04:18:49.103Z,100.00
2023-05-19T04:21:15.400Z,100.00
2023-05-19T04:23:41.680Z,99.68
2023-05-19T04:26:08.036Z,100.00
2023-05-19T04:28:34.342Z,99.14
2023-05-19T04:31:00.772Z,100.00
2023-05-19T04:33:27.048Z,99.69
2023-05-19T04:35:53.423Z,98.94
2023-05-19T04:38:19.862Z,97.12
2023-05-19T04:40:46.117Z,96.47
2023-05-19T04:43:12.732Z,95.91
2023-05-19T04:45:39.181Z,97.83
2023-05-19T04:48:05.494Z,96.85
2023-05-19T04:50:31.951Z,96.50
2023-05-19T04:52:58.404Z,95.51
2023-05-19T04:55:25.696Z,94.75
2023-05-19T04:57:52.013Z,95.50
2023-05-19T05:00:18.628Z,96.13
2023-05-19T05:02:44.980Z,96.85
2023-05-19T05:05:11.401Z,96.61
2023-05-19T05:07:39.196Z,96.73
2023-05-19T05:10:05.510Z,97.78
2023-05-19T05:12:31.923Z,97.66
2023-05-19T05:14:58.481Z,96.79
2023-05-19T05:17:24.837Z,95.71
2023-05-19T05:19:51.218Z,95.76
2023-05-19T05:22:17.549Z,94.76
2023-05-19T05:24:43.907Z,96.01
2023-05-19T05:27:10.501Z,94.38
2023-05-19T05:29:37.039Z,95.22
2023-05-19T05:32:03.532Z,98.47
2023-05-19T05:34:30.204Z,99.14
2023-05-19T05:36:56.500Z,95.95
2023-05-19T05:39:22.762Z,94.65
2023-05-19T05:41:49.026Z,94.87
2023-05-19T05:44:15.318Z,94.44
2023-05-19T05:46:41.859Z,94.27
2023-05-19T05:49:08.340Z,93.00
2023-05-19T05:51:34.670Z,90.55
2023-05-19T05:54:00.996Z,90.10
2023-05-19T05:56:27.269Z,89.70
2023-05-19T05:58:53.951Z,91.67
2023-05-19T06:01:20.224Z,93.13
2023-05-19T06:03:46.731Z,89.93
2023-05-19T06:06:13.194Z,87.08
2023-05-19T06:08:39.477Z,86.08
2023-05-19T06:11:05.753Z,86.27
2023-05-19T06:13:32.429Z,86.67
2023-05-19T06:16:00.531Z,84.41
2023-05-19T06:18:28.188Z,86.63
2023-05-19T06:20:54.775Z,91.19
2023-05-19T06:23:21.063Z,88.38
2023-05-19T06:25:47.304Z,89.50
2023-05-19T06:28:13.639Z,87.84
2023-05-19T06:30:40.094Z,91.15
2023-05-19T06:33:06.364Z,94.31
2023-05-19T06:35:32.805Z,94.80
2023-05-19T06:37:59.414Z,89.99
2023-05-19T06:40:25.848Z,86.42
2023-05-19T06:42:52.163Z,90.44
2023-05-19T06:45:18.433Z,91.11
2023-05-19T06:47:44.751Z,90.45
2023-05-19T06:50:11.247Z,91.67
2023-05-19T06:52:37.691Z,88.86
2023-05-19T06:55:04.136Z,91.94
2023-05-19T06:57:30.581Z,90.63
2023-05-19T06:59:56.835Z,88.21
2023-05-19T07:02:23.538Z,84.57
2023-05-19T07:04:49.817Z,86.86
2023-05-19T07:07:16.471Z,85.26
2023-05-19T07:09:42.748Z,87.20
2023-05-19T07:12:09.097Z,82.50
2023-05-19T07:14:35.449Z,85.54
2023-05-19T07:17:02.135Z,85.37
2023-05-19T07:19:28.640Z,81.45
2023-05-19T07:21:55.051Z,78.50
2023-05-19T07:24:21.770Z,76.83
2023-05-19T07:26:48.032Z,76.53
2023-05-19T07:29:14.345Z,77.53
2023-05-19T07:31:40.727Z,78.00
2023-05-19T07:34:07.065Z,76.36
2023-05-19T07:36:33.508Z,76.52
2023-05-19T07:38:59.876Z,79.99
2023-05-19T07:41:26.598Z,73.92
2023-05-19T07:43:53.070Z,78.08
2023-05-19T07:46:19.437Z,79.93
2023-05-19T07:48:46.097Z,81.09
2023-05-19T07:51:12.480Z,83.17
2023-05-19T07:53:38.770Z,74.91
2023-05-19T07:56:05.169Z,76.59
2023-05-19T07:58:31.445Z,70.81
2023-05-19T08:00:57.865Z,69.56
2023-05-19T08:03:24.426Z,69.44
2023-05-19T08:05:51.258Z,69.59
2023-05-19T08:08:17.505Z,68.01
2023-05-19T08:10:43.881Z,67.20
2023-05-19T08:13:10.231Z,64.85
2023-05-19T08:15:36.688Z,67.87
2023-05-19T08:18:03.037Z,66.63
2023-05-19T08:20:29.940Z,65.21
2023-05-19T08:22:56.336Z,66.00
2023-05-19T08:25:22.817Z,64.68
2023-05-19T08:27:49.438Z,64.17
2023-05-19T08:30:15.896Z,66.93
2023-05-19T08:32:42.189Z,65.91
2023-05-19T08:35:08.672Z,65.66
2023-05-19T08:37:35.058Z,64.87
2023-05-19T08:40:01.363Z,64.07
2023-05-19T08:42:27.831Z,67.06
2023-05-19T08:44:54.303Z,64.16
2023-05-19T08:47:20.607Z,63.71
2023-05-19T08:49:46.939Z,68.64
2023-05-19T08:52:13.365Z,68.21
2023-05-19T08:54:39.790Z,67.94
2023-05-19T08:57:06.110Z,64.54
2023-05-19T08:59:32.824Z,65.03
2023-05-19T09:01:59.091Z,67.24
2023-05-19T09:04:26.457Z,61.01
2023-05-19T09:06:53.511Z,64.73
2023-05-19T09:09:20.148Z,62.30
2023-05-19T09:11:46.428Z,64.56
2023-05-19T09:14:12.702Z,62.17
2023-05-19T09:16:38.982Z,61.09
2023-05-19T09:19:05.741Z,64.33
2023-05-19T09:21:32.040Z,64.34
2023-05-19T09:23:58.371Z,70.39
2023-05-19T09:26:24.815Z,72.72
2023-05-19T09:28:51.296Z,71.40
2023-05-19T09:31:17.571Z,70.97
2023-05-19T09:33:45.897Z,68.60
2023-05-19T09:36:12.553Z,63.16
2023-05-19T09:38:41.839Z,66.22
2023-05-19T09:41:10.282Z,61.26
2023-05-19T09:43:36.628Z,59.35
2023-05-19T09:46:03.062Z,64.21
2023-05-19T09:48:29.375Z,61.39
2023-05-19T09:50:55.745Z,65.84
2023-05-19T09:53:22.187Z,61.53
2023-05-19T09:55:48.472Z,59.91
2023-05-19T09:58:15.125Z,60.51
2023-05-19T10:00:41.500Z,59.42
2023-05-19T10:03:07.833Z,54.75
2023-05-19T10:05:34.795Z,54.55
2023-05-19T10:08:01.550Z,55.01
2023-05-19T10:10:28.188Z,60.18
2023-05-19T10:12:54.521Z,53.39
2023-05-19T10:15:23.136Z,57.20
2023-05-19T10:17:49.779Z,49.38
2023-05-19T10:20:16.302Z,49.93
2023-05-19T10:22:42.971Z,48.77
2023-05-19T10:25:09.277Z,48.23
2023-05-19T10:27:35.723Z,47.62
2023-05-19T10:30:02.138Z,50.35
2023-05-19T10:32:28.555Z,48.84
2023-05-19T10:34:54.915Z,48.63
2023-05-19T10:37:21.178Z,52.87
2023-05-19T10:39:47.485Z,53.06
2023-05-19T10:42:13.845Z,54.06
2023-05-19T10:44:40.176Z,51.71
2023-05-19T10:47:06.624Z,54.23
2023-05-19T10:49:32.985Z,49.48
2023-05-19T10:51:59.272Z,50.21
2023-05-19T10:54:25.577Z,47.96
2023-05-19T10:56:52.216Z,48.42
2023-05-19T10:59:18.889Z,48.67
2023-05-19T11:01:45.187Z,47.79
2023-05-19T11:04:11.619Z,51.13
2023-05-19T11:06:38.042Z,49.33
2023-05-19T11:09:04.395Z,53.85
2023-05-19T11:11:32.201Z,50.00
2023-05-19T11:13:59.470Z,48.89
2023-05-19T11:16:27.324Z,45.38
2023-05-19T11:18:53.644Z,47.58
2023-05-19T11:21:20.023Z,48.07
2023-05-19T11:23:46.437Z,44.49
2023-05-19T11:26:12.751Z,45.67
2023-05-19T11:28:39.054Z,47.18
2023-05-19T11:31:05.532Z,45.23
2023-05-19T11:33:31.885Z,50.30
2023-05-19T11:35:58.627Z,48.62
2023-05-19T11:38:25.222Z,45.79
2023-05-19T11:40:51.651Z,47.92
2023-05-19T11:43:17.955Z,46.45
2023-05-19T11:45:44.473Z,48.16
2023-05-19T11:48:10.774Z,45.79
2023-05-19T11:50:37.280Z,49.78
2023-05-19T11:53:03.655Z,49.33
2023-05-19T11:55:30.354Z,49.87
2023-05-19T11:58:03.800Z,51.34
2023-05-19T12:00:31.942Z,52.46
2023-05-19T12:02:58.397Z,53.50
2023-05-19T12:05:24.944Z,52.83
2023-05-19T12:07:51.331Z,53.15
2023-05-19T12:10:17.635Z,53.88
2023-05-19T12:12:43.952Z,52.77
2023-05-19T12:15:10.574Z,52.51
2023-05-19T12:17:37.271Z,52.83
2023-05-19T12:20:03.647Z,53.48
2023-05-19T12:22:30.162Z,54.14
2023-05-19T12:24:56.438Z,54.83
2023-05-19T12:27:22.734Z,54.54
2023-05-19T12:29:48.982Z,54.71
2023-05-19T12:32:15.335Z,55.68
2023-05-19T12:34:41.640Z,55.16
2023-05-19T12:37:08.265Z,56.68
2023-05-19T12:39:34.917Z,53.01
2023-05-19T12:42:01.234Z,53.16
2023-05-19T12:44:27.882Z,56.07
2023-05-19T12:46:54.564Z,55.64
2023-05-19T12:49:20.911Z,54.95
2023-05-19T12:51:47.256Z,53.07
2023-05-19T12:54:13.669Z,52.01
2023-05-19T12:56:40.325Z,51.75
2023-05-19T12:59:06.668Z,50.66
2023-05-19T13:01:33.045Z,52.42
2023-05-19T13:03:59.485Z,50.98
2023-05-19T13:06:26.180Z,49.33
2023-05-19T13:08:52.843Z,49.06
2023-05-19T13:11:19.128Z,50.48
2023-05-19T13:13:45.408Z,49.91
2023-05-19T13:16:11.727Z,50.73
2023-05-19T13:18:38.161Z,50.27
2023-05-19T13:21:04.476Z,49.64
2023-05-19T13:23:30.771Z,49.91
2023-05-19T13:25:57.052Z,48.99
2023-05-19T13:28:23.428Z,48.94
2023-05-19T13:30:49.902Z,49.78
2023-05-19T13:33:16.421Z,50.37
2023-05-19T13:35:42.861Z,51.19
2023-05-19T13:38:09.184Z,52.33
2023-05-19T13:40:35.571Z,52.97
2023-05-19T13:43:01.950Z,55.09
2023-05-19T13:45:28.336Z,53.58
2023-05-19T13:47:54.696Z,54.01
2023-05-19T13:50:20.976Z,52.91
2023-05-19T13:52:47.328Z,53.72
2023-05-19T13:55:13.622Z,53.09
2023-05-19T13:57:41.095Z,54.73
2023-05-19T14:00:08.441Z,54.47
2023-05-19T14:02:34.891Z,56.43
2023-05-19T14:05:01.268Z,54.05
2023-05-19T14:07:27.616Z,54.10
2023-05-19T14:09:54.524Z,55.50
2023-05-19T14:12:27.531Z,52.50
2023-05-19T14:15:01.148Z,51.27
2023-05-19T14:17:27.462Z,52.84
2023-05-19T14:19:53.824Z,52.96
2023-05-19T14:22:20.285Z,52.32
2023-05-19T14:24:46.587Z,52.35
2023-05-19T14:27:13.262Z,52.61
2023-05-19T14:29:40.037Z,51.93
2023-05-19T14:32:06.591Z,52.03
2023-05-19T14:34:33.091Z,54.70
2023-05-19T14:36:59.697Z,51.76
2023-05-19T14:39:26.016Z,55.09
2023-05-19T14:41:52.314Z,54.17
2023-05-19T14:44:18.624Z,57.00
2023-05-19T14:46:45.057Z,56.62
2023-05-19T14:49:11.426Z,57.04
2023-05-19T14:51:37.769Z,58.14
2023-05-19T14:54:04.124Z,56.37
2023-05-19T14:56:30.381Z,59.71
2023-05-19T14:58:56.812Z,59.46
2023-05-19T15:01:23.182Z,56.26
2023-05-19T15:03:49.874Z,57.33
2023-05-19T15:06:19.688Z,55.40
2023-05-19T15:08:46.127Z,55.85
2023-05-19T15:11:12.408Z,58.27
2023-05-19T15:13:38.707Z,58.08
2023-05-19T15:16:15.391Z,57.83
2023-05-19T15:18:43.557Z,54.56
2023-05-19T15:21:10.151Z,56.30
2023-05-19T15:23:36.604Z,59.79
2023-05-19T15:26:03.022Z,59.03
2023-05-19T15:28:29.301Z,58.09
2023-05-19T15:30:56.036Z,59.39
2023-05-19T15:33:22.406Z,59.76
2023-05-19T15:35:48.841Z,55.43
2023-05-19T15:38:15.112Z,58.54
2023-05-19T15:40:41.390Z,57.52
2023-05-19T15:43:07.842Z,57.51
2023-05-19T15:45:34.151Z,55.29
2023-05-19T15:48:01.080Z,56.55
2023-05-19T15:50:27.472Z,55.83
2023-05-19T15:52:53.844Z,56.25
2023-05-19T15:55:20.502Z,57.47
2023-05-19T15:57:46.946Z,56.72
2023-05-19T16:00:13.343Z,57.21
2023-05-19T16:02:39.834Z,56.52
2023-05-19T16:05:06.280Z,57.94
2023-05-19T16:07:32.580Z,58.17
2023-05-19T16:09:58.854Z,57.54
2023-05-19T16:12:25.157Z,56.26
2023-05-19T16:14:51.438Z,56.07
2023-05-19T16:17:17.871Z,56.48
2023-05-19T16:19:44.144Z,57.01
2023-05-19T16:22:10.664Z,57.05
2023-05-19T16:24:37.083Z,57.16
2023-05-19T16:27:04.362Z,58.54
2023-05-19T16:29:30.787Z,57.06
2023-05-19T16:31:57.451Z,55.57
2023-05-19T16:34:24.036Z,57.09
2023-05-19T16:36:50.683Z,58.57
2023-05-19T16:39:17.023Z,59.44
2023-05-19T16:41:43.344Z,59.91
2023-05-19T16:44:09.720Z,59.95
2023-05-19T16:46:36.182Z,60.95
2023-05-19T16:49:02.662Z,61.73
2023-05-19T16:51:28.943Z,63.51
2023-05-19T16:53:55.384Z,67.39
2023-05-19T16:56:21.867Z,64.22
2023-05-19T16:58:48.138Z,63.70
2023-05-19T17:01:14.817Z,64.55
2023-05-19T17:03:41.163Z,65.94
2023-05-19T17:06:07.663Z,64.01
2023-05-19T17:08:34.132Z,64.54
2023-05-19T17:11:00.628Z,65.70
2023-05-19T17:13:26.893Z,66.05
2023-05-19T17:15:53.547Z,66.91
2023-05-19T17:18:19.852Z,71.47
2023-05-19T17:20:46.141Z,69.66
2023-05-19T17:23:12.424Z,71.19
2023-05-19T17:25:38.695Z,74.05
2023-05-19T17:28:05.325Z,80.63
2023-05-19T17:30:32.147Z,84.34
2023-05-19T17:32:58.613Z,87.14
2023-05-19T17:35:26.377Z,84.91
2023-05-19T17:37:53.967Z,91.23
2023-05-19T17:40:20.271Z,83.61
2023-05-19T17:42:47.236Z,90.08
2023-05-19T17:45:13.593Z,87.97
2023-05-19T17:47:40.284Z,96.16
2023-05-19T17:50:06.873Z,87.40
2023-05-19T17:52:33.264Z,91.13
2023-05-19T17:54:59.897Z,88.68
2023-05-19T17:57:26.183Z,87.70
2023-05-19T17:59:52.631Z,89.42
2023-05-19T18:02:19.127Z,88.49
2023-05-19T18:04:45.603Z,96.76
2023-05-19T18:07:11.924Z,99.38
2023-05-19T18:09:38.455Z,95.48
2023-05-19T18:12:04.928Z,97.47
2023-05-19T18:14:31.184Z,92.34
2023-05-19T18:16:57.459Z,93.97
2023-05-19T18:19:23.901Z,91.29
2023-05-19T18:21:50.642Z,97.15
2023-05-19T18:24:17.314Z,95.63
2023-05-19T18:26:43.865Z,99.18
2023-05-19T18:29:10.465Z,95.97
2023-05-19T18:31:36.858Z,95.53
2023-05-19T18:34:03.150Z,93.37
2023-05-19T18:36:29.615Z,99.18
2023-05-19T18:38:55.962Z,100.00
2023-05-19T18:41:22.293Z,100.00
2023-05-19T18:43:48.992Z,99.45
2023-05-19T18:46:15.378Z,100.00
2023-05-19T18:48:41.951Z,98.23
2023-05-19T18:51:08.218Z,96.43
2023-05-19T18:53:34.614Z,100.00
2023-05-19T18:56:00.986Z,100.00
2023-05-19T18:58:27.284Z,100.00
2023-05-19T19:00:54.077Z,99.03
2023-05-19T19:03:20.748Z,98.79
2023-05-19T19:05:47.409Z,99.53
2023-05-19T19:08:13.742Z,100.00
2023-05-19T19:10:40.249Z,100.00
2023-05-19T19:13:06.528Z,100.00
2023-05-19T19:15:32.965Z,100.00
2023-05-19T19:17:59.332Z,100.00
2023-05-19T19:20:25.772Z,100.00
2023-05-19T19:22:52.067Z,100.00
2023-05-19T19:25:18.510Z,100.00
2023-05-19T19:27:45.444Z,100.00
2023-05-19T19:30:11.780Z,100.00
2023-05-19T19:32:38.154Z,100.00
2023-05-19T19:35:04.517Z,100.00
2023-05-19T19:37:30.970Z,100.00
2023-05-19T19:39:57.604Z,100.00
2023-05-19T19:42:23.970Z,100.00
2023-05-19T19:44:50.267Z,100.00
2023-05-19T19:47:16.708Z,100.00
2023-05-19T19:49:43.048Z,100.00
2023-05-19T19:52:09.340Z,100.00
2023-05-19T19:54:35.871Z,100.00
2023-05-19T19:57:02.149Z,100.00
2023-05-19T19:59:28.413Z,100.00
2023-05-19T20:01:55.116Z,100.00
2023-05-19T20:04:21.536Z,100.00
2023-05-19T20:06:48.205Z,100.00
2023-05-19T20:09:14.557Z,100.00
2023-05-19T20:11:40.992Z,100.00
2023-05-19T20:14:07.268Z,100.00
2023-05-19T20:16:33.623Z,100.00
2023-05-19T20:18:59.957Z,100.00
2023-05-19T20:21:26.352Z,100.00
2023-05-19T20:23:52.650Z,100.00
2023-05-19T20:26:19.117Z,100.00
2023-05-19T20:28:45.376Z,100.00
2023-05-19T20:31:11.706Z,100.00
2023-05-19T20:33:38.152Z,100.00
2023-05-19T20:36:04.590Z,100.00
2023-05-19T20:38:30.846Z,100.00
2023-05-19T20:40:57.537Z,100.00
2023-05-19T20:43:23.818Z,100.00
2023-05-19T20:45:50.245Z,100.00
2023-05-19T20:48:16.702Z,100.00
2023-05-19T20:50:43.193Z,100.00
2023-05-19T20:53:09.803Z,100.00
2023-05-19T20:55:36.218Z,100.00
2023-05-19T20:58:02.602Z,100.00
2023-05-19T21:00:30.384Z,100.00
2023-05-19T21:02:57.077Z,100.00
2023-05-19T21:05:23.638Z,100.00
2023-05-19T21:07:49.916Z,100.00
2023-05-19T21:10:16.187Z,100.00
2023-05-19T21:12:42.668Z,100.00
2023-05-19T21:15:08.913Z,100.00
2023-05-19T21:17:35.336Z,100.00
2023-05-19T21:20:01.630Z,100.00
2023-05-19T21:22:27.932Z,100.00
2023-05-19T21:24:54.290Z,100.00
2023-05-19T21:27:20.797Z,100.00
2023-05-19T21:29:47.174Z,100.00
2023-05-19T21:32:13.488Z,100.00
2023-05-19T21:34:39.767Z,100.00
2023-05-19T21:37:06.067Z,100.00
2023-05-19T21:39:32.730Z,100.00
2023-05-19T21:41:59.365Z,100.00
2023-05-19T21:44:25.683Z,100.00
2023-05-19T21:46:52.265Z,100.00
2023-05-19T21:49:19.003Z,100.00
2023-05-19T21:51:45.304Z,100.00
2023-05-19T21:54:12.036Z,100.00
2023-05-19T21:56:38.306Z,100.00
2023-05-19T21:59:04.569Z,100.00
2023-05-19T22:01:30.897Z,100.00
2023-05-19T22:03:57.470Z,100.00
2023-05-19T22:06:24.100Z,100.00
2023-05-19T22:08:50.554Z,100.00
2023-05-19T22:11:16.826Z,100.00
2023-05-19T22:13:43.112Z,100.00
2023-05-19T22:16:09.449Z,100.00
2023-05-19T22:18:35.780Z,100.00
2023-05-19T22:21:02.098Z,100.00
2023-05-19T22:23:28.623Z,100.00
2023-05-19T22:25:54.937Z,100.00
2023-05-19T22:28:21.284Z,100.00
2023-05-19T22:30:49.933Z,100.00
2023-05-19T22:33:16.254Z,100.00
2023-05-19T22:35:42.773Z,100.00
2023-05-19T22:38:10.577Z,100.00
2023-05-19T22:40:37.450Z,100.00
2023-05-19T22:43:03.988Z,100.00
2023-05-19T22:45:30.341Z,100.00
2023-05-19T22:47:56.639Z,100.00
2023-05-19T22:50:22.989Z,100.00
2023-05-19T22:52:49.268Z,100.00
2023-05-19T22:55:15.847Z,100.00
2023-05-19T22:57:42.289Z,100.00
2023-05-19T23:00:08.729Z,100.00
2023-05-19T23:02:35.376Z,100.00
2023-05-19T23:05:01.750Z,100.00
2023-05-19T23:07:28.050Z,100.00
2023-05-19T23:09:54.425Z,100.00
2023-05-19T23:12:20.688Z,100.00
2023-05-19T23:14:47.047Z,100.00
2023-05-19T23:17:13.616Z,100.00
2023-05-19T23:19:40.279Z,100.00
2023-05-19T23:22:06.623Z,100.00
2023-05-19T23:24:32.894Z,100.00
2023-05-19T23:26:59.465Z,100.00
2023-05-19T23:29:25.792Z,100.00
2023-05-19T23:31:52.224Z,100.00
2023-05-19T23:34:18.485Z,100.00
2023-05-19T23:36:44.797Z,100.00
2023-05-19T23:39:11.055Z,100.00
2023-05-19T23:41:37.454Z,100.00
2023-05-19T23:44:03.933Z,100.00
2023-05-19T23:46:30.347Z,100.00
2023-05-19T23:48:56.773Z,100.00
2023-05-19T23:51:23.343Z,100.00
2023-05-19T23:53:49.653Z,100.00
2023-05-19T23:56:16.313Z,100.00
2023-05-19T23:58:42.605Z,100.00
